createdAt,value
2022-12-27T00:00:26.056Z,0.50
2022-12-27T00:01:29.467Z,0.52
2022-12-27T00:02:32.401Z,0.40
2022-12-27T00:03:34.809Z,0.43
2022-12-27T00:04:37.159Z,0.50
2022-12-27T00:05:45.172Z,0.30
2022-12-27T00:06:47.681Z,0.40
2022-12-27T00:07:50.096Z,0.50
2022-12-27T00:08:52.791Z,0.30
2022-12-27T00:09:55.550Z,0.30
2022-12-27T00:11:03.639Z,0.40
2022-12-27T00:12:06.302Z,0.38
2022-12-27T00:13:08.583Z,0.50
2022-12-27T00:14:12.035Z,0.38
2022-12-27T00:15:14.339Z,0.45
2022-12-27T00:16:19.079Z,0.63
2022-12-27T00:17:21.505Z,0.30
2022-12-27T00:18:23.829Z,0.30
2022-12-27T00:19:26.057Z,0.30
2022-12-27T00:20:28.426Z,0.50
2022-12-27T00:21:30.935Z,0.40
2022-12-27T00:22:33.450Z,0.40
2022-12-27T00:23:38.223Z,0.32
2022-12-27T00:24:40.696Z,0.30
2022-12-27T00:25:43.011Z,0.30
2022-12-27T00:26:45.342Z,0.22
2022-12-27T00:27:47.735Z,0.25
2022-12-27T00:28:50.537Z,0.47
2022-12-27T00:29:52.865Z,0.40
2022-12-27T00:30:56.079Z,0.60
2022-12-27T00:31:58.466Z,0.30
2022-12-27T00:33:00.856Z,0.30
2022-12-27T00:34:05.647Z,0.30
2022-12-27T00:35:08.437Z,0.57
2022-12-27T00:36:15.022Z,0.38
2022-12-27T00:37:17.417Z,0.28
2022-12-27T00:38:20.410Z,0.50
2022-12-27T00:39:23.107Z,0.50
2022-12-27T00:40:25.463Z,0.28
2022-12-27T00:41:29.372Z,0.65
2022-12-27T00:42:31.690Z,20.60
2022-12-27T00:43:34.281Z,37.45
2022-12-27T00:44:36.716Z,16.33
2022-12-27T00:45:39.170Z,16.80
2022-12-27T00:46:41.553Z,9.13
2022-12-27T00:47:44.065Z,7.60
2022-12-27T00:48:46.981Z,5.88
2022-12-27T00:49:49.323Z,4.30
2022-12-27T00:50:57.040Z,4.03
2022-12-27T00:51:59.392Z,3.50
2022-12-27T00:53:01.707Z,3.13
2022-12-27T00:54:04.351Z,2.85
2022-12-27T00:55:06.831Z,2.75
2022-12-27T00:56:15.640Z,2.30
2022-12-27T00:57:18.812Z,2.28
2022-12-27T00:58:21.731Z,2.65
2022-12-27T00:59:24.038Z,2.40
2022-12-27T01:00:26.322Z,1.90
2022-12-27T01:01:30.721Z,2.30
2022-12-27T01:02:33.146Z,1.90
2022-12-27T01:03:35.659Z,1.70
2022-12-27T01:04:38.016Z,1.35
2022-12-27T01:05:40.348Z,1.77
2022-12-27T01:06:43.849Z,1.70
2022-12-27T01:07:46.130Z,1.55
2022-12-27T01:08:48.693Z,1.40
2022-12-27T01:09:51.348Z,1.58
2022-12-27T01:10:53.673Z,1.70
2022-12-27T01:11:56.283Z,1.55
2022-12-27T01:13:01.279Z,1.48
2022-12-27T01:14:05.522Z,1.40
2022-12-27T01:15:09.393Z,1.50
2022-12-27T01:16:22.977Z,1.38
2022-12-27T01:17:25.349Z,1.58
2022-12-27T01:18:27.990Z,1.58
2022-12-27T01:19:30.439Z,1.27
2022-12-27T01:20:32.787Z,1.45
2022-12-27T01:21:35.227Z,1.10
2022-12-27T01:22:37.602Z,1.20
2022-12-27T01:23:40.320Z,1.58
2022-12-27T01:24:42.637Z,1.38
2022-12-27T01:25:44.948Z,1.30
2022-12-27T01:26:47.297Z,1.40
2022-12-27T01:27:49.643Z,1.25
2022-12-27T01:28:53.202Z,1.42
2022-12-27T01:29:55.604Z,1.08
2022-12-27T01:30:58.041Z,1.20
2022-12-27T01:32:00.407Z,1.38
2022-12-27T01:33:02.762Z,1.30
2022-12-27T01:34:05.236Z,1.38
2022-12-27T01:35:07.965Z,1.55
2022-12-27T01:36:14.948Z,1.20
2022-12-27T01:37:17.792Z,1.20
2022-12-27T01:38:20.097Z,0.82
2022-12-27T01:39:22.544Z,1.00
2022-12-27T01:40:25.789Z,0.95
2022-12-27T01:41:50.998Z,1.00
2022-12-27T01:42:53.315Z,1.00
2022-12-27T01:43:55.640Z,1.10
2022-12-27T01:44:58.434Z,1.10
2022-12-27T01:46:00.983Z,0.88
2022-12-27T01:47:16.075Z,0.90
2022-12-27T01:48:22.476Z,1.02
2022-12-27T01:49:25.744Z,0.68
2022-12-27T01:50:38.950Z,0.70
2022-12-27T01:51:41.383Z,0.60
2022-12-27T01:52:52.830Z,0.82
2022-12-27T01:55:02.042Z,0.63
2022-12-27T01:56:09.509Z,0.60
2022-12-27T01:57:11.971Z,0.80
2022-12-27T01:58:19.882Z,0.80
2022-12-27T01:59:22.294Z,0.45
2022-12-27T02:00:24.742Z,0.43
2022-12-27T02:01:32.337Z,0.70
2022-12-27T02:02:34.980Z,0.85
2022-12-27T02:03:41.413Z,0.70
2022-12-27T02:04:44.761Z,0.55
2022-12-27T02:05:47.391Z,0.60
2022-12-27T02:06:51.771Z,0.68
2022-12-27T02:08:35.164Z,0.80
2022-12-27T02:09:53.516Z,0.70
2022-12-27T02:10:57.333Z,0.60
2022-12-27T02:12:01.918Z,0.70
2022-12-27T02:13:06.391Z,0.70
2022-12-27T02:14:09.635Z,0.75
2022-12-27T02:15:12.276Z,0.65
2022-12-27T02:16:17.508Z,0.68
2022-12-27T02:17:26.859Z,0.60
2022-12-27T02:18:29.357Z,0.60
2022-12-27T02:19:40.576Z,1.00
2022-12-27T02:21:17.721Z,0.60
2022-12-27T02:22:59.827Z,0.35
2022-12-27T02:24:05.257Z,0.88
2022-12-27T02:25:34.040Z,0.50
2022-12-27T02:26:51.093Z,0.65
2022-12-27T02:28:31.370Z,0.30
2022-12-27T02:29:49.743Z,0.65
2022-12-27T02:30:59.136Z,0.60
2022-12-27T02:32:13.355Z,0.50
2022-12-27T02:33:22.747Z,0.55
2022-12-27T02:34:34.809Z,0.80
2022-12-27T02:35:42.840Z,0.80
2022-12-27T02:36:46.458Z,0.45
2022-12-27T02:38:02.443Z,0.50
2022-12-27T02:39:06.051Z,0.82
2022-12-27T02:40:30.350Z,0.60
2022-12-27T02:41:53.414Z,0.70
2022-12-27T02:43:14.966Z,0.68
2022-12-27T02:44:37.495Z,0.47
2022-12-27T02:46:05.089Z,0.52
2022-12-27T02:47:44.302Z,0.77
2022-12-27T02:49:16.358Z,0.60
2022-12-27T02:52:06.641Z,0.40
2022-12-27T02:53:24.643Z,0.70
2022-12-27T02:54:43.383Z,0.40
2022-12-27T02:56:34.695Z,0.50
2022-12-27T02:58:00.303Z,0.43
2022-12-27T02:59:13.783Z,0.52
2022-12-27T03:00:41.673Z,0.30
2022-12-27T03:02:43.350Z,0.47
2022-12-27T03:04:11.458Z,0.47
2022-12-27T03:05:46.489Z,0.50
2022-12-27T03:06:58.530Z,0.82
2022-12-27T03:08:10.243Z,0.40
2022-12-27T03:09:53.158Z,0.70
2022-12-27T03:11:18.535Z,0.70
2022-12-27T03:13:00.493Z,0.63
2022-12-27T03:16:00.868Z,0.50
2022-12-27T03:17:13.529Z,0.60
2022-12-27T03:18:27.872Z,0.52
2022-12-27T03:20:02.837Z,0.65
2022-12-27T03:21:25.742Z,0.60
2022-12-27T03:22:49.246Z,0.60
2022-12-27T03:24:13.946Z,0.50
2022-12-27T03:25:29.397Z,0.60
2022-12-27T03:26:35.879Z,0.52
2022-12-27T03:27:40.058Z,0.60
2022-12-27T03:29:03.733Z,0.40
2022-12-27T03:30:27.659Z,0.52
2022-12-27T03:31:55.722Z,0.50
2022-12-27T03:33:14.692Z,0.57
2022-12-27T03:34:39.805Z,0.60
2022-12-27T03:36:23.954Z,0.57
2022-12-27T03:37:50.155Z,0.52
2022-12-27T03:38:59.889Z,0.50
2022-12-27T03:40:07.426Z,0.60
2022-12-27T03:41:31.976Z,0.40
2022-12-27T03:43:02.716Z,0.60
2022-12-27T03:44:23.998Z,0.60
2022-12-27T03:45:50.894Z,0.45
2022-12-27T03:46:59.006Z,0.30
2022-12-27T03:48:06.193Z,0.60
2022-12-27T03:49:23.296Z,0.80
2022-12-27T03:50:31.475Z,0.50
2022-12-27T03:52:07.548Z,0.60
2022-12-27T03:53:32.649Z,0.80
2022-12-27T03:54:38.195Z,0.65
2022-12-27T03:55:40.543Z,0.52
2022-12-27T03:56:43.055Z,0.52
2022-12-27T03:57:45.868Z,0.73
2022-12-27T03:58:48.341Z,0.60
2022-12-27T03:59:50.711Z,0.57
2022-12-27T04:00:53.163Z,0.28
2022-12-27T04:01:56.036Z,0.70
2022-12-27T04:02:58.578Z,0.68
2022-12-27T04:04:00.990Z,0.68
2022-12-27T04:05:03.462Z,1.13
2022-12-27T04:06:06.274Z,0.60
2022-12-27T04:07:09.130Z,0.35
2022-12-27T04:08:29.964Z,0.60
2022-12-27T04:09:51.216Z,0.40
2022-12-27T04:11:12.292Z,0.73
2022-12-27T04:12:33.341Z,0.60
2022-12-27T04:13:54.419Z,0.68
2022-12-27T04:15:15.511Z,0.50
2022-12-27T04:16:36.506Z,0.60
2022-12-27T04:17:57.609Z,0.60
2022-12-27T04:19:18.555Z,0.63
2022-12-27T04:20:39.596Z,0.50
2022-12-27T04:22:00.643Z,0.50
2022-12-27T04:23:21.724Z,0.40
2022-12-27T04:24:42.648Z,0.60
2022-12-27T04:26:04.128Z,0.52
2022-12-27T04:27:25.079Z,0.47
2022-12-27T04:28:46.389Z,0.50
2022-12-27T04:30:07.562Z,0.52
2022-12-27T04:31:28.658Z,0.45
2022-12-27T04:32:49.757Z,0.70
2022-12-27T04:34:10.783Z,0.63
2022-12-27T04:35:13.149Z,0.43
2022-12-27T04:36:15.468Z,0.60
2022-12-27T04:37:19.552Z,0.52
2022-12-27T04:38:21.918Z,0.73
2022-12-27T04:39:24.165Z,0.50
2022-12-27T04:40:46.207Z,0.57
2022-12-27T04:42:07.494Z,0.73
2022-12-27T04:43:28.536Z,0.65
2022-12-27T04:44:49.551Z,0.68
2022-12-27T04:46:10.591Z,0.80
2022-12-27T04:47:34.217Z,0.50
2022-12-27T04:48:55.154Z,0.65
2022-12-27T04:50:16.245Z,0.50
2022-12-27T04:51:37.364Z,0.60
2022-12-27T04:52:58.370Z,0.50
2022-12-27T04:54:19.544Z,0.88
2022-12-27T04:55:24.805Z,0.50
2022-12-27T04:56:27.131Z,0.60
2022-12-27T04:57:29.461Z,0.65
2022-12-27T04:58:32.625Z,0.65
2022-12-27T04:59:53.671Z,11.52
2022-12-27T05:01:17.866Z,7.20
2022-12-27T05:02:21.480Z,5.22
2022-12-27T05:03:24.477Z,24.63
2022-12-27T05:04:28.455Z,10.85
2022-12-27T05:05:30.900Z,10.23
2022-12-27T05:06:33.484Z,10.18
2022-12-27T05:07:55.449Z,8.55
2022-12-27T05:09:22.975Z,6.35
2022-12-27T05:10:44.620Z,5.65
2022-12-27T05:12:05.699Z,4.95
2022-12-27T05:13:29.759Z,5.03
2022-12-27T05:14:32.014Z,4.75
2022-12-27T05:15:34.318Z,4.65
2022-12-27T05:16:38.969Z,4.20
2022-12-27T05:17:41.283Z,4.07
2022-12-27T05:18:43.903Z,3.58
2022-12-27T05:19:46.206Z,3.22
2022-12-27T05:20:48.618Z,3.60
2022-12-27T05:22:09.837Z,2.90
2022-12-27T05:23:30.886Z,2.45
2022-12-27T05:24:51.929Z,3.10
2022-12-27T05:25:54.309Z,2.95
2022-12-27T05:26:56.697Z,3.10
2022-12-27T05:27:59.015Z,2.58
2022-12-27T05:29:02.076Z,2.25
2022-12-27T05:30:04.864Z,4.75
2022-12-27T05:31:07.181Z,9.98
2022-12-27T05:32:13.310Z,23.70
2022-12-27T05:33:16.239Z,49.67
2022-12-27T05:34:18.562Z,14.30
2022-12-27T05:35:21.246Z,14.13
2022-12-27T05:36:24.320Z,12.05
2022-12-27T05:37:27.149Z,10.00
2022-12-27T05:38:29.503Z,8.18
2022-12-27T05:39:31.821Z,7.47
2022-12-27T05:40:34.351Z,6.63
2022-12-27T05:41:36.942Z,6.30
2022-12-27T05:42:39.227Z,4.28
2022-12-27T05:43:41.549Z,5.32
2022-12-27T05:44:43.842Z,5.22
2022-12-27T05:45:46.094Z,4.80
2022-12-27T05:46:48.406Z,4.20
2022-12-27T05:47:50.962Z,4.75
2022-12-27T05:48:53.263Z,4.45
2022-12-27T05:49:55.582Z,4.85
2022-12-27T05:50:58.933Z,4.63
2022-12-27T05:52:01.290Z,3.85
2022-12-27T05:53:03.605Z,4.00
2022-12-27T05:54:06.024Z,4.28
2022-12-27T05:55:08.776Z,3.50
2022-12-27T05:56:20.342Z,4.05
2022-12-27T05:57:22.681Z,4.22
2022-12-27T05:58:25.667Z,63.90
2022-12-27T05:59:27.963Z,43.78
2022-12-27T06:00:30.455Z,39.30
2022-12-27T06:01:32.864Z,22.70
2022-12-27T06:02:36.633Z,13.38
2022-12-27T06:03:39.583Z,22.55
2022-12-27T06:04:42.034Z,16.33
2022-12-27T06:05:44.421Z,12.18
2022-12-27T06:06:46.734Z,9.88
2022-12-27T06:07:49.601Z,9.35
2022-12-27T06:08:51.958Z,9.38
2022-12-27T06:09:54.237Z,8.18
2022-12-27T06:11:09.473Z,7.65
2022-12-27T06:12:11.812Z,9.50
2022-12-27T06:13:14.229Z,7.45
2022-12-27T06:14:16.743Z,7.00
2022-12-27T06:15:19.062Z,7.05
2022-12-27T06:16:22.472Z,7.22
2022-12-27T06:17:25.137Z,9.43
2022-12-27T06:18:29.721Z,7.47
2022-12-27T06:19:32.202Z,7.82
2022-12-27T06:20:34.747Z,6.90
2022-12-27T06:21:37.091Z,7.25
2022-12-27T06:22:39.403Z,6.57
2022-12-27T06:23:44.623Z,6.65
2022-12-27T06:24:47.211Z,6.22
2022-12-27T06:25:49.720Z,6.15
2022-12-27T06:26:51.978Z,5.85
2022-12-27T06:27:54.373Z,6.80
2022-12-27T06:28:58.075Z,6.22
2022-12-27T06:30:00.609Z,7.90
2022-12-27T06:31:03.918Z,7.72
2022-12-27T06:32:06.592Z,5.13
2022-12-27T06:33:08.925Z,27.60
2022-12-27T06:34:11.677Z,101.85
2022-12-27T06:35:13.999Z,43.88
2022-12-27T06:36:18.680Z,20.13
2022-12-27T06:37:21.013Z,38.33
2022-12-27T06:38:23.563Z,92.07
2022-12-27T06:39:26.118Z,47.30
2022-12-27T06:40:28.436Z,35.58
2022-12-27T06:41:30.757Z,25.35
2022-12-27T06:42:33.136Z,23.50
2022-12-27T06:43:35.715Z,21.63
2022-12-27T06:44:38.044Z,20.17
2022-12-27T06:45:40.802Z,15.70
2022-12-27T06:46:43.147Z,14.73
2022-12-27T06:47:45.668Z,13.98
2022-12-27T06:48:47.989Z,13.02
2022-12-27T06:49:50.442Z,16.48
2022-12-27T06:50:52.913Z,13.15
2022-12-27T06:51:59.466Z,13.27
2022-12-27T06:53:02.059Z,11.45
2022-12-27T06:54:04.379Z,12.23
2022-12-27T06:55:06.872Z,12.02
2022-12-27T06:56:18.153Z,12.18
2022-12-27T06:57:20.509Z,10.80
2022-12-27T06:58:22.968Z,10.65
2022-12-27T06:59:25.237Z,13.20
2022-12-27T07:00:27.652Z,11.25
2022-12-27T07:01:30.240Z,9.98
2022-12-27T07:02:32.870Z,9.98
2022-12-27T07:03:35.642Z,10.32
2022-12-27T07:04:37.991Z,9.07
2022-12-27T07:05:40.500Z,12.52
2022-12-27T07:06:42.767Z,12.23
2022-12-27T07:07:45.167Z,11.98
2022-12-27T07:08:48.774Z,13.25
2022-12-27T07:09:51.168Z,11.38
2022-12-27T07:10:53.406Z,14.43
2022-12-27T07:11:55.820Z,13.07
2022-12-27T07:12:58.191Z,10.55
2022-12-27T07:14:00.720Z,9.52
2022-12-27T07:15:05.248Z,12.40
2022-12-27T07:16:10.185Z,12.13
2022-12-27T07:17:12.735Z,14.57
2022-12-27T07:18:15.210Z,13.27
2022-12-27T07:19:19.850Z,13.52
2022-12-27T07:20:22.410Z,12.68
2022-12-27T07:21:28.575Z,12.68
2022-12-27T07:22:31.112Z,12.85
2022-12-27T07:23:34.301Z,12.82
2022-12-27T07:24:36.856Z,13.50
2022-12-27T07:25:39.551Z,12.55
2022-12-27T07:26:42.091Z,11.70
2022-12-27T07:27:44.757Z,12.30
2022-12-27T07:28:48.047Z,12.63
2022-12-27T07:29:50.576Z,13.45
2022-12-27T07:30:52.844Z,11.90
2022-12-27T07:31:55.432Z,11.98
2022-12-27T07:32:58.539Z,12.45
2022-12-27T07:34:03.475Z,11.85
2022-12-27T07:35:06.407Z,12.10
2022-12-27T07:36:18.474Z,12.27
2022-12-27T07:37:20.896Z,11.63
2022-12-27T07:38:23.435Z,11.35
2022-12-27T07:39:25.880Z,33.03
2022-12-27T07:40:28.503Z,31.17
2022-12-27T07:41:34.661Z,18.10
2022-12-27T07:42:37.117Z,13.93
2022-12-27T07:43:39.737Z,14.32
2022-12-27T07:44:42.239Z,13.00
2022-12-27T07:45:44.525Z,13.07
2022-12-27T07:46:47.212Z,12.55
2022-12-27T07:47:49.664Z,13.23
2022-12-27T07:48:56.653Z,12.32
2022-12-27T07:49:59.086Z,13.20
2022-12-27T07:51:01.939Z,13.32
2022-12-27T07:52:04.321Z,12.57
2022-12-27T07:53:06.640Z,11.48
2022-12-27T07:54:08.982Z,12.05
2022-12-27T07:55:11.250Z,12.93
2022-12-27T07:56:26.183Z,12.20
2022-12-27T07:57:29.582Z,12.90
2022-12-27T07:58:36.494Z,12.10
2022-12-27T07:59:38.918Z,12.00
2022-12-27T08:00:41.199Z,11.77
2022-12-27T08:02:03.138Z,12.15
2022-12-27T08:03:05.827Z,11.75
2022-12-27T08:04:08.213Z,11.57
2022-12-27T08:05:10.449Z,10.10
2022-12-27T08:06:24.440Z,12.20
2022-12-27T08:07:27.025Z,11.88
2022-12-27T08:08:39.871Z,11.70
2022-12-27T08:09:45.427Z,11.40
2022-12-27T08:10:47.850Z,11.70
2022-12-27T08:11:50.200Z,11.68
2022-12-27T08:12:52.912Z,11.00
2022-12-27T08:13:55.672Z,11.63
2022-12-27T08:14:58.064Z,10.45
2022-12-27T08:16:00.996Z,10.85
2022-12-27T08:17:07.292Z,12.13
2022-12-27T08:18:10.176Z,11.15
2022-12-27T08:19:12.511Z,11.73
2022-12-27T08:20:14.997Z,11.88
2022-12-27T08:21:17.495Z,11.23
2022-12-27T08:22:20.249Z,11.05
2022-12-27T08:23:22.603Z,11.10
2022-12-27T08:24:25.085Z,10.43
2022-12-27T08:25:28.569Z,11.57
2022-12-27T08:26:30.823Z,10.90
2022-12-27T08:27:33.515Z,10.50
2022-12-27T08:28:36.542Z,9.75
2022-12-27T08:29:39.022Z,9.40
2022-12-27T08:30:43.245Z,10.75
2022-12-27T08:31:45.619Z,7.85
2022-12-27T08:32:47.977Z,6.88
2022-12-27T08:33:56.555Z,9.77
2022-12-27T08:35:18.325Z,13.30
2022-12-27T08:36:53.489Z,25.60
2022-12-27T08:37:45.221Z,11.52
2022-12-27T08:38:47.535Z,12.07
2022-12-27T08:39:49.893Z,8.65
2022-12-27T08:40:52.244Z,11.65
2022-12-27T08:41:54.742Z,10.77
2022-12-27T08:42:57.117Z,12.57
2022-12-27T08:43:59.408Z,11.00
2022-12-27T08:45:01.738Z,12.05
2022-12-27T08:46:06.079Z,11.45
2022-12-27T08:47:08.515Z,11.63
2022-12-27T08:48:10.951Z,12.10
2022-12-27T08:49:13.560Z,11.43
2022-12-27T08:50:16.168Z,11.88
2022-12-27T08:51:31.103Z,11.93
2022-12-27T08:52:38.092Z,11.65
2022-12-27T08:53:40.579Z,12.13
2022-12-27T08:54:42.973Z,11.48
2022-12-27T08:55:45.310Z,11.30
2022-12-27T08:56:48.016Z,11.05
2022-12-27T08:57:50.347Z,11.85
2022-12-27T08:58:52.727Z,11.00
2022-12-27T08:59:55.076Z,11.68
2022-12-27T09:01:05.043Z,11.65
2022-12-27T09:02:07.692Z,10.85
2022-12-27T09:03:10.882Z,11.65
2022-12-27T09:04:13.334Z,10.82
2022-12-27T09:05:15.857Z,10.93
2022-12-27T09:06:23.332Z,10.98
2022-12-27T09:07:25.772Z,9.82
2022-12-27T09:08:28.037Z,11.93
2022-12-27T09:09:30.372Z,10.30
2022-12-27T09:10:32.721Z,9.63
2022-12-27T09:11:35.250Z,10.45
2022-12-27T09:12:37.669Z,10.68
2022-12-27T09:13:40.478Z,10.80
2022-12-27T09:14:42.880Z,10.50
2022-12-27T09:15:45.589Z,9.88
2022-12-27T09:16:48.031Z,10.73
2022-12-27T09:17:50.565Z,9.68
2022-12-27T09:18:54.953Z,10.70
2022-12-27T09:19:57.353Z,11.20
2022-12-27T09:21:13.801Z,10.00
2022-12-27T09:22:16.213Z,9.75
2022-12-27T09:23:18.691Z,9.95
2022-12-27T09:24:21.170Z,9.60
2022-12-27T09:25:23.623Z,9.95
2022-12-27T09:26:29.048Z,10.20
2022-12-27T09:27:31.407Z,10.02
2022-12-27T09:28:33.848Z,10.30
2022-12-27T09:29:36.169Z,10.73
2022-12-27T09:30:38.468Z,10.93
2022-12-27T09:31:40.899Z,11.63
2022-12-27T09:32:43.227Z,11.73
2022-12-27T09:33:45.553Z,11.30
2022-12-27T09:34:47.846Z,11.80
2022-12-27T09:35:50.216Z,10.90
2022-12-27T09:36:52.603Z,12.23
2022-12-27T09:37:56.574Z,11.85
2022-12-27T09:38:59.586Z,11.80
2022-12-27T09:40:02.052Z,11.35
2022-12-27T09:42:12.247Z,12.00
2022-12-27T09:43:20.616Z,12.40
2022-12-27T09:44:44.115Z,10.77
2022-12-27T09:45:50.250Z,12.00
2022-12-27T09:47:00.250Z,11.38
2022-12-27T09:48:13.578Z,12.65
2022-12-27T09:49:24.767Z,12.60
2022-12-27T09:50:40.728Z,12.73
2022-12-27T09:51:48.610Z,11.77
2022-12-27T09:53:00.094Z,12.75
2022-12-27T09:54:10.889Z,12.15
2022-12-27T09:55:34.999Z,12.98
2022-12-27T09:57:09.629Z,12.77
2022-12-27T09:58:35.898Z,11.57
2022-12-27T09:59:46.170Z,12.20
2022-12-27T10:00:51.154Z,12.43
2022-12-27T10:01:53.712Z,9.65
2022-12-27T10:02:58.000Z,25.60
2022-12-27T10:04:01.258Z,14.52
2022-12-27T10:05:20.200Z,12.27
2022-12-27T10:06:32.778Z,12.55
2022-12-27T10:08:04.636Z,12.55
2022-12-27T10:09:34.244Z,10.65
2022-12-27T10:10:55.505Z,10.20
2022-12-27T10:12:32.178Z,11.27
2022-12-27T10:13:59.677Z,14.18
2022-12-27T10:15:29.792Z,14.18
2022-12-27T10:16:50.365Z,13.60
2022-12-27T10:18:14.532Z,14.10
2022-12-27T10:19:19.593Z,13.20
2022-12-27T10:20:43.357Z,13.15
2022-12-27T10:22:11.389Z,13.73
2022-12-27T10:23:22.812Z,15.23
2022-12-27T10:24:32.440Z,13.68
2022-12-27T10:25:36.448Z,13.90
2022-12-27T10:26:39.015Z,14.60
2022-12-27T10:27:42.022Z,13.88
2022-12-27T10:28:56.813Z,14.70
2022-12-27T10:30:01.689Z,14.15
2022-12-27T10:31:05.050Z,13.93
2022-12-27T10:32:11.811Z,14.18
2022-12-27T10:33:30.290Z,13.82
2022-12-27T10:34:32.681Z,13.57
2022-12-27T10:35:34.993Z,14.25
2022-12-27T10:36:37.554Z,13.80
2022-12-27T10:37:40.903Z,13.43
2022-12-27T10:38:43.537Z,14.35
2022-12-27T10:39:45.919Z,13.05
2022-12-27T10:41:06.182Z,12.93
2022-12-27T10:42:28.624Z,13.23
2022-12-27T10:43:40.045Z,13.40
2022-12-27T10:45:44.767Z,12.85
2022-12-27T10:46:52.605Z,12.85
2022-12-27T10:48:12.079Z,12.90
2022-12-27T10:49:32.542Z,13.45
2022-12-27T10:50:34.866Z,13.75
2022-12-27T10:51:39.690Z,11.82
2022-12-27T10:52:44.141Z,11.85
2022-12-27T10:53:46.447Z,12.52
2022-12-27T10:54:56.151Z,13.02
2022-12-27T10:56:26.693Z,11.88
2022-12-27T10:57:28.992Z,12.68
2022-12-27T10:58:37.012Z,12.60
2022-12-27T10:59:39.359Z,10.65
2022-12-27T11:00:53.517Z,11.63
2022-12-27T11:02:02.406Z,11.85
2022-12-27T11:03:05.080Z,12.77
2022-12-27T11:04:21.154Z,11.32
2022-12-27T11:05:29.205Z,11.73
2022-12-27T11:06:31.592Z,12.50
2022-12-27T11:07:34.641Z,12.30
2022-12-27T11:08:37.721Z,10.63
2022-12-27T11:09:50.633Z,11.80
2022-12-27T11:11:22.626Z,11.77
2022-12-27T11:12:30.581Z,10.98
2022-12-27T11:13:32.881Z,11.20
2022-12-27T11:14:37.104Z,11.57
2022-12-27T11:15:44.755Z,10.88
2022-12-27T11:16:48.262Z,11.00
2022-12-27T11:17:53.835Z,11.10
2022-12-27T11:18:58.898Z,11.02
2022-12-27T11:20:24.358Z,10.85
2022-12-27T11:21:28.816Z,11.07
2022-12-27T11:22:31.661Z,12.00
2022-12-27T11:23:43.301Z,10.45
2022-12-27T11:24:48.083Z,10.45
2022-12-27T11:25:56.491Z,10.48
2022-12-27T11:26:59.730Z,10.07
2022-12-27T11:28:06.396Z,10.88
2022-12-27T11:29:18.058Z,9.82
2022-12-27T11:30:23.608Z,9.93
2022-12-27T11:31:41.794Z,9.93
2022-12-27T11:32:45.630Z,10.07
2022-12-27T11:33:53.259Z,9.82
2022-12-27T11:34:56.650Z,9.95
2022-12-27T11:36:00.629Z,9.75
2022-12-27T11:37:14.178Z,10.20
2022-12-27T11:38:31.399Z,10.10
2022-12-27T11:39:40.813Z,9.75
2022-12-27T11:40:43.303Z,9.50
2022-12-27T11:41:48.483Z,9.52
2022-12-27T11:43:03.200Z,9.23
2022-12-27T11:44:14.488Z,9.63
2022-12-27T11:45:23.225Z,9.82
2022-12-27T11:46:37.183Z,9.82
2022-12-27T11:47:51.235Z,8.98
2022-12-27T11:48:58.640Z,9.80
2022-12-27T11:50:48.431Z,9.95
2022-12-27T11:52:03.394Z,8.50
2022-12-27T11:53:56.336Z,9.77
2022-12-27T11:55:13.980Z,9.18
2022-12-27T11:56:19.775Z,9.57
2022-12-27T11:58:00.381Z,8.60
2022-12-27T11:59:30.000Z,9.50
2022-12-27T12:00:47.190Z,8.52
2022-12-27T12:01:52.437Z,9.10
2022-12-27T12:03:18.612Z,8.55
2022-12-27T12:04:39.594Z,7.80
2022-12-27T12:05:54.999Z,10.15
2022-12-27T12:07:36.516Z,9.07
2022-12-27T12:08:57.557Z,8.77
2022-12-27T12:10:47.429Z,7.72
2022-12-27T12:12:27.340Z,8.77
2022-12-27T12:13:48.990Z,7.65
2022-12-27T12:16:26.793Z,8.35
2022-12-27T12:17:58.701Z,8.75
2022-12-27T12:19:13.481Z,8.30
2022-12-27T12:20:39.880Z,8.23
2022-12-27T12:22:03.254Z,8.27
2022-12-27T12:23:46.520Z,7.80
2022-12-27T12:25:07.628Z,7.47
2022-12-27T12:26:13.021Z,7.63
2022-12-27T12:27:48.398Z,7.28
2022-12-27T12:29:09.649Z,7.25
2022-12-27T12:30:27.884Z,7.85
2022-12-27T12:31:33.570Z,8.25
2022-12-27T12:32:58.983Z,7.40
2022-12-27T12:34:36.939Z,7.00
2022-12-27T12:36:13.882Z,51.35
2022-12-27T12:37:51.905Z,35.47
2022-12-27T12:39:26.786Z,14.30
2022-12-27T12:40:47.557Z,14.57
2022-12-27T12:42:04.648Z,30.77
2022-12-27T12:43:39.157Z,26.52
2022-12-27T12:44:56.399Z,22.85
2022-12-27T12:46:36.447Z,20.52
2022-12-27T12:48:05.128Z,17.23
2022-12-27T12:49:43.202Z,17.50
2022-12-27T12:51:18.636Z,14.93
2022-12-27T12:52:27.054Z,16.98
2022-12-27T12:53:35.130Z,14.68
2022-12-27T12:55:14.889Z,17.08
2022-12-27T12:56:28.978Z,14.60
2022-12-27T12:58:10.867Z,14.10
2022-12-27T12:59:45.346Z,13.65
2022-12-27T13:01:31.203Z,13.55
2022-12-27T13:02:44.059Z,12.65
2022-12-27T13:04:06.966Z,15.02
2022-12-27T13:05:40.140Z,17.13
2022-12-27T13:07:17.051Z,15.20
2022-12-27T13:08:38.204Z,16.02
2022-12-27T13:10:20.751Z,16.02
2022-12-27T13:11:37.955Z,14.50
2022-12-27T13:12:53.500Z,14.70
2022-12-27T13:14:23.421Z,15.50
2022-12-27T13:15:36.856Z,14.45
2022-12-27T13:17:02.465Z,14.32
2022-12-27T13:18:54.781Z,15.25
2022-12-27T13:21:09.835Z,13.57
2022-12-27T13:22:32.764Z,13.20
2022-12-27T13:23:53.700Z,14.32
2022-12-27T13:25:18.937Z,14.40
2022-12-27T13:26:39.626Z,13.48
2022-12-27T13:27:44.967Z,14.50
2022-12-27T13:29:34.954Z,12.75
2022-12-27T13:30:51.896Z,14.00
2022-12-27T13:32:12.184Z,13.43
2022-12-27T13:33:49.851Z,12.65
2022-12-27T13:35:28.312Z,14.10
2022-12-27T13:36:33.349Z,15.68
2022-12-27T13:38:03.751Z,14.25
2022-12-27T13:39:25.989Z,14.38
2022-12-27T13:40:55.875Z,12.77
2022-12-27T13:42:35.196Z,12.73
2022-12-27T13:44:06.310Z,12.50
2022-12-27T13:45:54.401Z,13.05
2022-12-27T13:47:42.127Z,13.88
2022-12-27T13:49:07.786Z,12.48
2022-12-27T13:50:19.132Z,11.32
2022-12-27T13:51:50.268Z,13.00
2022-12-27T13:52:59.280Z,13.13
2022-12-27T13:54:39.548Z,12.57
2022-12-27T13:56:27.257Z,12.70
2022-12-27T13:58:25.021Z,27.38
2022-12-27T13:59:54.843Z,49.40
2022-12-27T14:01:13.713Z,58.15
2022-12-27T14:02:37.601Z,44.65
2022-12-27T14:04:05.363Z,30.90
2022-12-27T14:05:31.138Z,20.23
2022-12-27T14:07:00.825Z,19.02
2022-12-27T14:08:40.582Z,13.85
2022-12-27T14:09:55.152Z,14.45
2022-12-27T14:11:01.111Z,13.35
2022-12-27T14:12:32.786Z,14.52
2022-12-27T14:13:38.988Z,12.18
2022-12-27T14:14:42.835Z,13.55
2022-12-27T14:15:50.795Z,13.77
2022-12-27T14:17:15.584Z,13.10
2022-12-27T14:18:51.885Z,14.25
2022-12-27T14:20:09.039Z,13.20
2022-12-27T14:21:29.955Z,13.70
2022-12-27T14:22:40.756Z,12.75
2022-12-27T14:24:12.473Z,11.07
2022-12-27T14:25:59.376Z,12.82
2022-12-27T14:27:39.249Z,12.75
2022-12-27T14:29:15.734Z,13.05
2022-12-27T14:30:40.950Z,11.93
2022-12-27T14:32:20.712Z,11.95
2022-12-27T14:33:41.563Z,12.48
2022-12-27T14:34:53.272Z,11.40
2022-12-27T14:36:15.698Z,10.88
2022-12-27T14:37:39.635Z,10.00
2022-12-27T14:39:00.725Z,10.60
2022-12-27T14:40:34.920Z,9.82
2022-12-27T14:41:51.416Z,9.95
2022-12-27T14:43:22.690Z,10.90
2022-12-27T14:44:41.937Z,10.60
2022-12-27T14:46:22.286Z,11.38
2022-12-27T14:47:33.253Z,10.23
2022-12-27T14:48:50.247Z,9.43
2022-12-27T14:50:36.447Z,11.25
2022-12-27T14:52:07.264Z,11.63
2022-12-27T14:53:42.201Z,11.90
2022-12-27T14:55:04.217Z,10.63
2022-12-27T14:56:18.190Z,10.75
2022-12-27T14:57:33.453Z,13.27
2022-12-27T14:58:48.443Z,10.60
2022-12-27T15:00:12.137Z,10.55
2022-12-27T15:01:23.619Z,10.70
2022-12-27T15:02:47.556Z,10.38
2022-12-27T15:04:38.130Z,10.82
2022-12-27T15:06:17.454Z,10.85
2022-12-27T15:07:41.904Z,9.73
2022-12-27T15:08:49.722Z,9.63
2022-12-27T15:10:04.526Z,12.20
2022-12-27T15:11:34.439Z,10.63
2022-12-27T15:13:13.588Z,12.07
2022-12-27T15:14:24.939Z,10.07
2022-12-27T15:15:59.673Z,26.67
2022-12-27T15:17:16.299Z,40.80
2022-12-27T15:18:50.848Z,28.55
2022-12-27T15:19:55.848Z,23.08
2022-12-27T15:21:01.333Z,18.00
2022-12-27T15:22:25.137Z,14.23
2022-12-27T15:23:45.822Z,12.70
2022-12-27T15:25:05.079Z,12.93
2022-12-27T15:26:50.396Z,12.60
2022-12-27T15:28:16.385Z,11.05
2022-12-27T15:30:03.094Z,12.35
2022-12-27T15:31:21.157Z,9.73
2022-12-27T15:32:35.541Z,10.60
2022-12-27T15:34:12.684Z,10.27
2022-12-27T15:35:41.400Z,10.45
2022-12-27T15:36:48.928Z,12.15
2022-12-27T15:38:01.894Z,9.90
2022-12-27T15:39:04.532Z,10.88
2022-12-27T15:40:34.747Z,9.60
2022-12-27T15:41:56.314Z,8.82
2022-12-27T15:43:22.207Z,10.25
2022-12-27T15:44:45.298Z,8.38
2022-12-27T15:46:08.542Z,7.88
2022-12-27T15:47:28.785Z,8.07
2022-12-27T15:49:06.221Z,7.38
2022-12-27T15:50:26.154Z,8.82